Cooktown, Australia
Current Conditions -  °F | °C
As of 3:00 AM on Friday 24 Oct 2014 (Local Time) from YBCS Reporting Station
Rain Showers Rain Showers  
Wind Chill: 68°   Ceiling: 3500
Heat Index: 68°   Visibility: 6mi
Dew Point: 66°   Wind: 8mph
Humidity: 94%   Direction: 170°S
Pressure: 30"   Gusts: NA
Location:  15.47°S, 145.25°E
Report Text: YBCS 231700Z 17007KT 9999 -SHRA FEW012 BKN035 BKN060 20/19 Q1016 RESHRA
Loading
Personal Weather Stations






























Interactive Weather Map
Tropical Storm Tracking
New forecast layout! Learn more

10-Day Weather Forecast

Advertisements
Track Severe Weather on mobile